OMFJ/FJR METAR and TAF weather

Enter ICAO airport designator
Station Type Date Time Source
OMFJ METAR 2020/07/10 00:00 UTC NOAA

OMFJ 100000Z 29007KT 7000 NSC 36/20 Q0995 A2938


Station Type Date Time Source
OMFJ Decoded METAR 2020/07/10 00:00 UTC NOAA

Fujairah, United Arab Emirates (OMFJ) 25-06N 056-20E 28M
Jul 09, 2020 - 08:00 PM EDT / 2020.07.10 0000 UTC
Wind: from the WNW (290 degrees) at 8 MPH (7 KT):0
Visibility: 4 mile(s):0
Temperature: 96 F (36 C)
Heat index: 100.2 F (37.9 C):1
Dew Point: 68 F (20 C)
Relative Humidity: 39%
Pressure (altimeter): 29.38 in. Hg (994 hPa)
ob: OMFJ 100000Z 29007KT 7000 NSC 36/20 Q0995 A2938
cycle: 0

Station Type Date Time Source
OMFJ TAF 2020/07/09 18:03 UTC NOAA

TAF TAF OMFJ 091700Z 0918/1024 VRB03KT 7000 NSC
TEMPO 0922/1001 29007KT FEW020
BECMG 1004/1006 10007KT
BECMG 1014/1016 VRB03KT
TEMPO 1019/1024 29007KT

Example: see airport list